TimeEDT,TemperatureF,Dew PointF,Humidity,Sea Level PressureIn,VisibilityMPH,Wind Direction,Wind SpeedMPH,Gust SpeedMPH,PrecipitationIn,Events,Conditions,WindDirDegrees,DateUTC
12:53 AM,68.0,63.0,84,30.14,10.0,Calm,Calm,-,N/A,,Clear,0,2013-06-21 04:53:00
1:53 AM,66.9,63.0,87,30.15,10.0,Calm,Calm,-,N/A,,Clear,0,2013-06-21 05:53:00
2:53 AM,66.9,62.1,84,30.14,10.0,Calm,Calm,-,N/A,,Clear,0,2013-06-21 06:53:00
3:53 AM,66.9,62.1,84,30.13,10.0,Calm,Calm,-,N/A,,Clear,0,2013-06-21 07:53:00
4:53 AM,66.9,61.0,81,30.14,10.0,SE,3.5,-,N/A,,Clear,130,2013-06-21 08:53:00
5:53 AM,66.9,61.0,81,30.15,10.0,ESE,3.5,-,N/A,,Clear,120,2013-06-21 09:53:00
6:53 AM,66.0,61.0,84,30.14,10.0,ESE,3.5,-,N/A,,Clear,120,2013-06-21 10:53:00
7:53 AM,70.0,63.0,78,30.16,10.0,Calm,Calm,-,N/A,,Clear,0,2013-06-21 11:53:00
8:53 AM,73.0,64.0,73,30.17,10.0,SSE,5.8,-,N/A,,Clear,150,2013-06-21 12:53:00
9:53 AM,77.0,66.0,69,30.16,10.0,South,8.1,-,N/A,,Clear,170,2013-06-21 13:53:00
10:53 AM,80.1,68.0,67,30.14,10.0,SSE,10.4,-,N/A,,Clear,150,2013-06-21 14:53:00
11:53 AM,82.9,68.0,60,30.16,10.0,South,6.9,-,N/A,,Clear,170,2013-06-21 15:53:00
12:53 PM,84.9,66.9,55,30.16,10.0,South,4.6,-,N/A,,Clear,170,2013-06-21 16:53:00
1:53 PM,87.1,68.0,53,30.14,10.0,South,10.4,-,N/A,,Partly Cloudy,170,2013-06-21 17:53:00
2:53 PM,87.1,68.0,53,30.12,10.0,SSE,13.8,17.3,N/A,,Partly Cloudy,150,2013-06-21 18:53:00
3:53 PM,88.0,66.9,49,30.11,10.0,South,8.1,-,N/A,,Partly Cloudy,180,2013-06-21 19:53:00
4:53 PM,88.0,66.9,49,30.10,10.0,South,10.4,-,N/A,,Partly Cloudy,190,2013-06-21 20:53:00
5:53 PM,87.1,66.9,51,30.10,10.0,South,8.1,-,N/A,,Clear,170,2013-06-21 21:53:00
6:53 PM,86.0,66.9,53,30.10,10.0,South,6.9,-,N/A,,Partly Cloudy,170,2013-06-21 22:53:00
7:16 PM,84.2,68.0,58,30.12,10.0,SE,5.8,-,N/A,Thunderstorm,Partly Cloudy,130,2013-06-21 23:16:00
7:53 PM,84.0,69.1,61,30.10,10.0,Variable,4.6,-,N/A,Thunderstorm,Thunderstorm,0,2013-06-21 23:53:00
8:12 PM,73.4,68.0,83,30.15,1.5,NNW,17.3,24.2,0.22,Rain-Thunderstorm,Heavy Thunderstorms and Rain,330,2013-06-22 00:12:00
8:19 PM,-9999,-9999,N/A,-9999,-9999.0,West,16.1,-,0.65,Rain,Heavy Rain,280,2013-06-22 00:19:00
8:26 PM,69.8,66.2,88,30.15,0.5,West,11.5,28.8,1.10,Fog-Rain-Thunderstorm,Heavy Thunderstorms and Rain,270,2013-06-22 00:26:00
8:42 PM,71.6,66.2,83,30.07,1.2,SE,21.9,27.6,1.65,Rain-Thunderstorm,Heavy Thunderstorms and Rain,130,2013-06-22 00:42:00
8:53 PM,72.0,66.9,84,30.04,2.5,SE,13.8,26.5,1.73,Rain-Thunderstorm,Light Thunderstorms and Rain,130,2013-06-22 00:53:00
8:58 PM,73.4,69.8,88,30.05,10.0,East,8.1,20.7,0.00,Rain-Thunderstorm,Light Thunderstorms and Rain,90,2013-06-22 00:58:00
9:24 PM,71.6,68.0,88,30.10,10.0,SE,11.5,-,0.00,,Scattered Clouds,140,2013-06-22 01:24:00
9:34 PM,71.6,68.0,88,30.09,10.0,SE,9.2,-,0.00,Thunderstorm,Partly Cloudy,140,2013-06-22 01:34:00
9:49 PM,71.6,69.8,94,30.10,10.0,South,9.2,-,0.00,,Clear,190,2013-06-22 01:49:00
9:53 PM,71.1,69.1,93,30.09,10.0,South,6.9,-,0.00,,Clear,180,2013-06-22 01:53:00
10:53 PM,73.0,66.0,79,30.06,10.0,South,6.9,-,N/A,,Clear,180,2013-06-22 02:53:00
11:53 PM,73.0,66.9,81,30.08,10.0,Calm,Calm,-,N/A,,Clear,0,2013-06-22 03:53:00